| time (UTC) | temp F | wind direction | speed MPH | gust MPH | rain 1hr in | rain 24hr in | rain mn in | humidity % | barometer mb |
| 20260905142835 | 72 | 0 | 8.0 | 17.0 | 0.00 | 0.00 | 0.00 | 52 | 1022.0 |
| 20260905135834 | 72 | 304 | 5.0 | 14.0 | 0.00 | 0.00 | 0.00 | 54 | 1022.0 |
| 20260905132832 | 69 | 313 | 5.0 | 13.0 | 0.00 | 0.00 | 0.00 | 55 | 1021.8 |
| 20260905125831 | 68 | 0 | 7.0 | 16.0 | 0.00 | 0.00 | 0.00 | 56 | 1021.7 |
| 20260905122830 | 68 | 259 | 7.0 | 15.0 | 0.00 | 0.00 | 0.00 | 61 | 1021.6 |
| 20260905115829 | 67 | 0 | 7.0 | 14.0 | 0.00 | 0.00 | 0.00 | 61 | 1021.5 |
| 20260905105827 | 66 | 254 | 11.0 | 19.0 | 0.00 | 0.00 | 0.00 | 64 | 1021.1 |
| 20260905102827 | 65 | 0 | 10.0 | 18.0 | 0.00 | 0.00 | 0.00 | 64 | 1021.1 |
| 20260905095834 | 64 | 288 | 9.0 | 18.0 | 0.00 | 0.00 | 0.00 | 65 | 1020.9 |
| 20260905092825 | 64 | 289 | 8.0 | 19.0 | 0.00 | 0.00 | 0.00 | 68 | 1020.8 |
| 20260905085825 | 62 | 0 | 12.0 | 19.0 | 0.00 | 0.00 | 0.00 | 71 | 1020.5 |
| 20260905082828 | 61 | 271 | 9.0 | 16.0 | 0.00 | 0.00 | 0.00 | 75 | 1020.1 |
| 20260905075823 | 60 | 0 | 10.0 | 18.0 | 0.00 | 0.01 | 0.00 | 77 | 1019.8 |
| 20260905072824 | 59 | 258 | 10.0 | 16.0 | 0.00 | 0.02 | 0.00 | 80 | 1019.6 |
| 20260905065825 | 58 | 235 | 6.0 | 13.0 | 0.00 | 0.06 | 0.00 | 82 | 1019.2 |
| 20260905062826 | 57 | 270 | 6.0 | 11.0 | 0.00 | 0.09 | 0.00 | 83 | 1018.7 |
| 20260905055823 | 56 | 0 | 7.0 | 13.0 | 0.00 | 0.42 | 0.00 | 83 | 1018.5 |
| 20260905052822 | 56 | 282 | 6.0 | 11.0 | 0.00 | 0.44 | 0.00 | 84 | 1018.2 |
| 20260905045823 | 56 | 297 | 5.0 | 11.0 | 0.00 | 0.44 | 0.00 | 84 | 1018.1 |
| 20260905042823 | 56 | 0 | 5.0 | 10.0 | 0.00 | 0.44 | 0.00 | 84 | 1017.7 |
| 20260905025823 | 57 | 257 | 6.0 | 12.0 | 0.00 | 0.44 | 0.00 | 83 | 1016.9 |
| 20260905015823 | 57 | 0 | 7.0 | 11.0 | 0.00 | 0.44 | 0.00 | 82 | 1016.4 |
| 20260905012822 | 57 | 287 | 6.0 | 11.0 | 0.00 | 0.44 | 0.00 | 81 | 1016.1 |
| 20260905005822 | 58 | 243 | 6.0 | 14.0 | 0.00 | 0.44 | 0.00 | 81 | 1015.9 |
| 20260905002829 | 58 | 233 | 5.0 | 14.0 | 0.00 | 0.44 | 0.00 | 80 | 1015.8 |
| 20260904235824 | 58 | 236 | 5.0 | 12.0 | 0.00 | 0.44 | 0.00 | 79 | 1015.5 |
| 20260904225825 | 59 | 240 | 6.0 | 14.0 | 0.00 | 0.44 | 0.44 | 79 | 1015.5 |
| 20260904222830 | 58 | 254 | 3.0 | 10.0 | 0.00 | 0.44 | 0.44 | 79 | 1015.2 |
| 20260904215819 | 60 | 229 | 5.0 | 11.0 | 0.00 | 0.44 | 0.44 | 77 | 1015.2 |
| 20260904212821 | 60 | 0 | 7.0 | 14.0 | 0.00 | 0.44 | 0.44 | 76 | 1015.1 |
| 20260904205827 | 60 | 0 | 6.0 | 12.0 | 0.00 | 0.44 | 0.44 | 75 | 1014.8 |
| 20260904202817 | 61 | 227 | 6.0 | 12.0 | 0.00 | 0.44 | 0.44 | 74 | 1014.8 |
| 20260904195814 | 61 | 242 | 4.0 | 11.0 | 0.00 | 0.44 | 0.44 | 73 | 1014.6 |
| 20260904192820 | 62 | 268 | 6.0 | 12.0 | 0.00 | 0.44 | 0.44 | 72 | 1013.9 |
| 20260904185809 | 63 | 259 | 7.0 | 14.0 | 0.00 | 0.44 | 0.44 | 70 | 1013.7 |
| 20260904182808 | 64 | 289 | 6.0 | 16.0 | 0.00 | 0.44 | 0.44 | 68 | 1013.2 |
| 20260904175813 | 66 | 243 | 9.0 | 17.0 | 0.00 | 0.44 | 0.44 | 66 | 1012.9 |
| 20260904172807 | 66 | 275 | 8.0 | 18.0 | 0.00 | 0.44 | 0.44 | 66 | 1012.5 |
| 20260904165808 | 66 | 238 | 6.0 | 15.0 | 0.00 | 0.44 | 0.44 | 66 | 1012.2 |
| 20260904162814 | 67 | 265 | 7.0 | 14.0 | 0.00 | 0.44 | 0.44 | 65 | 1012.0 |
| 20260904155807 | 67 | 329 | 9.0 | 18.0 | 0.00 | 0.44 | 0.44 | 64 | 1011.6 |
| 20260904152807 | 67 | 0 | 11.0 | 20.0 | 0.00 | 0.44 | 0.44 | 62 | 1011.5 |